Himrod, New York
Current Conditions -  °F | °C
As of 2:53 PM on Friday 28 Nov 2014 (Local Time) from KPEO Reporting Station
Scattered Clouds Scattered Clouds  
Wind Chill: 16°   Ceiling: Unl
Heat Index: 26°   Visibility: 10mi
Dew Point: 11°   Wind: 12mph
Humidity: 53%   Direction: 240°WSW
Pressure: 30.18"   Gusts: NA
Location:  42.59°N, 76.96°W
Report Text: KPEO 281953Z AUTO 24010KT 10SM SCT043 M03/M12 A3018 RMK AO2 SLP234 T10331117
Loading
Personal Weather Stations






























Interactive Weather Map New forecast layout! Learn more

10-Day Weather Forecast

Advertisements
Track Severe Weather on mobile